Los Angeles, California
Current Conditions -  °F | °C
As of 4:47 AM on Friday 24 Oct 2014 (Local Time) from KCQT Reporting Station
Clear Clear  
Wind Chill: 61°   Ceiling: Unl
Heat Index: 61°   Visibility: 10mi
Dew Point: 50°   Wind: 0mph
Humidity: 67%   Direction: NA
Pressure: 29.95"   Gusts: NA
Location:  34.05°N, 118.24°W
Report Text: KCQT 241147Z AUTO 00000KT 10SM CLR 16/10 A2995 RMK AO2 SLP139 T01610100 10194 20156 55005
Loading
Personal Weather Stations






























Interactive Weather Map New forecast layout! Learn more

10-Day Weather Forecast

Advertisements
Track Severe Weather on mobile